createdAt,value
2022-08-21T00:00:21.952Z,18.70
2022-08-21T00:03:10.332Z,19.00
2022-08-21T00:05:51.017Z,18.70
2022-08-21T00:08:22.142Z,19.10
2022-08-21T00:10:53.864Z,20.00
2022-08-21T00:13:26.230Z,19.00
2022-08-21T00:15:55.809Z,21.50
2022-08-21T00:18:26.500Z,22.40
2022-08-21T00:21:01.126Z,21.00
2022-08-21T00:23:30.435Z,23.30
2022-08-21T00:26:03.308Z,22.50
2022-08-21T00:28:35.821Z,23.10
2022-08-21T00:31:05.130Z,21.60
2022-08-21T00:33:34.961Z,21.70
2022-08-21T00:36:05.788Z,23.10
2022-08-21T00:38:35.380Z,25.90
2022-08-21T00:41:27.587Z,24.80
2022-08-21T00:43:58.726Z,24.70
2022-08-21T00:46:28.667Z,25.60
2022-08-21T00:48:59.065Z,23.40
2022-08-21T00:51:47.365Z,23.80
2022-08-21T00:54:20.215Z,25.20
2022-08-21T00:56:57.111Z,24.80
2022-08-21T00:59:36.479Z,25.70
2022-08-21T01:02:08.599Z,24.40
2022-08-21T01:04:38.071Z,26.70
2022-08-21T01:07:07.498Z,27.10
2022-08-21T01:09:38.647Z,26.10
2022-08-21T01:12:11.600Z,24.50
2022-08-21T01:14:43.961Z,23.60
2022-08-21T01:17:17.009Z,25.50
2022-08-21T01:19:46.193Z,27.80
2022-08-21T01:22:15.396Z,25.40
2022-08-21T01:24:44.722Z,25.40
2022-08-21T01:27:13.958Z,27.00
2022-08-21T01:30:02.669Z,26.50
2022-08-21T01:32:35.834Z,27.00
2022-08-21T01:35:08.685Z,26.30
2022-08-21T01:37:38.149Z,25.60
2022-08-21T01:40:10.426Z,25.60
2022-08-21T01:42:41.003Z,26.50
2022-08-21T01:45:11.907Z,28.60
2022-08-21T01:47:48.337Z,30.40
2022-08-21T01:50:21.787Z,33.50
2022-08-21T01:52:53.291Z,31.40
2022-08-21T01:57:52.167Z,28.90
2022-08-21T02:00:26.296Z,28.90
2022-08-21T02:02:55.402Z,30.00
2022-08-21T02:05:27.430Z,30.40
2022-08-21T02:07:56.714Z,30.90
2022-08-21T02:10:30.854Z,31.00
2022-08-21T02:13:01.680Z,30.10
2022-08-21T02:15:32.518Z,29.80
2022-08-21T02:18:03.288Z,28.20
2022-08-21T02:20:43.984Z,30.70
2022-08-21T02:23:14.733Z,28.60
2022-08-21T02:25:44.186Z,28.10
2022-08-21T02:28:16.399Z,28.90
2022-08-21T02:30:55.234Z,28.30
2022-08-21T02:37:15.919Z,27.80
2022-08-21T02:39:45.271Z,27.10
2022-08-21T02:42:14.327Z,25.60
2022-08-21T02:44:43.462Z,26.00
2022-08-21T02:47:12.717Z,23.30
2022-08-21T02:49:45.723Z,26.30
2022-08-21T02:52:15.566Z,28.80
2022-08-21T02:54:44.714Z,29.50
2022-08-21T02:57:13.748Z,30.50
2022-08-21T02:59:42.922Z,29.50
2022-08-21T03:02:15.535Z,26.60
2022-08-21T03:04:46.685Z,24.60
2022-08-21T03:07:16.489Z,24.80
2022-08-21T03:09:55.815Z,19.50
2022-08-21T03:12:27.876Z,18.40
2022-08-21T03:14:59.420Z,17.50
2022-08-21T03:17:30.072Z,17.00
2022-08-21T03:20:02.865Z,15.80
2022-08-21T03:22:33.364Z,15.20
2022-08-21T03:25:06.251Z,17.30
2022-08-21T03:27:36.489Z,15.70
2022-08-21T03:30:12.842Z,15.90
2022-08-21T03:32:44.817Z,16.50
2022-08-21T03:35:15.910Z,16.80
2022-08-21T03:37:46.346Z,18.40
2022-08-21T03:40:20.029Z,19.50
2022-08-21T03:42:49.883Z,18.90
2022-08-21T03:45:20.541Z,21.10
2022-08-21T03:48:04.262Z,22.40
2022-08-21T03:50:42.237Z,24.30
2022-08-21T03:53:16.937Z,25.70
2022-08-21T03:55:52.122Z,30.00
2022-08-21T03:58:30.457Z,32.00
2022-08-21T04:01:01.885Z,34.90
2022-08-21T04:03:31.837Z,35.70
2022-08-21T04:06:01.112Z,37.80
2022-08-21T04:08:31.406Z,38.40
2022-08-21T04:11:00.734Z,38.20
2022-08-21T04:13:30.084Z,37.20
2022-08-21T04:15:59.712Z,35.80
2022-08-21T04:18:31.662Z,39.40
2022-08-21T04:21:04.520Z,42.70
2022-08-21T04:23:34.495Z,43.10
2022-08-21T04:26:04.312Z,44.40
2022-08-21T04:28:33.589Z,46.80
2022-08-21T04:31:03.306Z,46.70
2022-08-21T04:33:32.635Z,46.30
2022-08-21T04:36:03.925Z,39.80
2022-08-21T04:38:37.600Z,42.00
2022-08-21T04:41:10.699Z,41.10
2022-08-21T04:43:41.083Z,39.10
2022-08-21T04:46:13.621Z,45.60
2022-08-21T04:48:43.498Z,46.00
2022-08-21T04:51:24.884Z,45.70
2022-08-21T04:54:16.868Z,42.30
2022-08-21T04:56:55.925Z,38.00
2022-08-21T04:59:32.758Z,38.40
2022-08-21T05:02:03.754Z,38.60
2022-08-21T05:04:38.062Z,33.80
2022-08-21T05:07:14.245Z,33.30
2022-08-21T05:09:43.894Z,33.10
2022-08-21T05:12:17.821Z,35.30
2022-08-21T05:14:48.487Z,33.90
2022-08-21T05:17:25.232Z,34.50
2022-08-21T05:20:06.875Z,36.90
2022-08-21T05:22:41.135Z,33.80
2022-08-21T05:25:14.715Z,34.90
2022-08-21T05:27:52.154Z,33.60
2022-08-21T05:30:22.275Z,31.70
2022-08-21T05:33:16.393Z,30.60
2022-08-21T05:36:11.757Z,30.70
2022-08-21T05:38:49.756Z,27.40
2022-08-21T05:41:24.338Z,28.00
2022-08-21T05:44:00.897Z,25.60
2022-08-21T05:46:38.608Z,23.70
2022-08-21T05:49:14.086Z,20.60
2022-08-21T05:51:43.780Z,14.30
2022-08-21T05:54:15.975Z,10.30
2022-08-21T05:56:50.490Z,11.30
2022-08-21T05:59:29.010Z,9.90
2022-08-21T06:02:09.493Z,8.50
2022-08-21T06:04:41.420Z,9.10
2022-08-21T06:09:40.188Z,7.40
2022-08-21T06:12:15.771Z,8.90
2022-08-21T06:14:47.382Z,9.80
2022-08-21T06:17:17.042Z,8.10
2022-08-21T06:19:46.259Z,11.50
2022-08-21T06:22:15.550Z,12.40
2022-08-21T06:24:44.940Z,10.40
2022-08-21T06:27:29.312Z,10.30
2022-08-21T06:30:08.583Z,11.30
2022-08-21T06:32:40.476Z,8.60
2022-08-21T06:35:26.982Z,8.40
2022-08-21T06:38:12.309Z,8.80
2022-08-21T06:41:17.685Z,8.90
2022-08-21T06:43:53.829Z,10.90
2022-08-21T06:46:32.260Z,9.60
2022-08-21T06:49:06.184Z,10.80
2022-08-21T06:51:37.264Z,8.60
2022-08-21T06:54:06.724Z,8.20
2022-08-21T06:56:41.816Z,12.40
2022-08-21T06:59:13.682Z,11.40
2022-08-21T07:01:45.984Z,9.60
2022-08-21T07:04:15.442Z,10.60
2022-08-21T07:06:47.768Z,10.50
2022-08-21T07:09:24.384Z,12.90
2022-08-21T07:11:58.917Z,12.30
2022-08-21T07:14:28.529Z,10.80
2022-08-21T07:17:04.067Z,16.40
2022-08-21T07:19:47.870Z,14.10
2022-08-21T07:22:25.973Z,14.40
2022-08-21T07:25:02.852Z,13.70
2022-08-21T07:27:38.796Z,17.80
2022-08-21T07:30:20.993Z,15.00
2022-08-21T07:33:17.321Z,13.40
2022-08-21T07:36:12.713Z,13.10
2022-08-21T07:38:59.469Z,13.90
2022-08-21T07:41:34.561Z,13.80
2022-08-21T07:44:12.645Z,19.30
2022-08-21T07:49:39.813Z,14.60
2022-08-21T07:52:23.481Z,14.80
2022-08-21T07:55:31.392Z,14.70
2022-08-21T07:58:06.836Z,14.50
2022-08-21T08:00:36.790Z,14.40
2022-08-21T08:03:10.509Z,14.00
2022-08-21T08:05:47.495Z,15.00
2022-08-21T08:08:19.879Z,13.80
2022-08-21T08:10:50.715Z,17.30
2022-08-21T08:13:20.381Z,14.70
2022-08-21T08:15:50.646Z,11.80
2022-08-21T08:18:22.253Z,12.20
2022-08-21T08:20:53.200Z,14.60
2022-08-21T08:23:29.678Z,14.90
2022-08-21T08:26:08.125Z,12.10
2022-08-21T08:28:39.766Z,11.40
2022-08-21T08:31:15.168Z,11.10
2022-08-21T08:33:45.238Z,18.50
2022-08-21T08:36:19.763Z,20.60
2022-08-21T08:38:51.209Z,9.90
2022-08-21T08:41:33.190Z,15.60
2022-08-21T08:44:13.697Z,11.20
2022-08-21T08:46:53.853Z,11.40
2022-08-21T08:49:56.118Z,12.20
2022-08-21T08:52:37.741Z,10.80
2022-08-21T08:55:28.099Z,8.80
2022-08-21T08:57:58.700Z,8.10
2022-08-21T09:00:32.294Z,10.00
2022-08-21T09:03:04.957Z,10.00
2022-08-21T09:05:50.639Z,10.20
2022-08-21T09:08:50.426Z,9.00
2022-08-21T09:11:52.021Z,8.40
2022-08-21T09:15:03.442Z,9.40
2022-08-21T09:18:24.276Z,9.20
2022-08-21T09:21:53.962Z,8.10
2022-08-21T09:24:54.936Z,8.40
2022-08-21T09:27:46.988Z,7.50
2022-08-21T09:30:36.394Z,9.80
2022-08-21T09:33:08.675Z,15.90
2022-08-21T09:35:55.679Z,8.60
2022-08-21T09:38:39.780Z,9.30
2022-08-21T09:41:11.750Z,8.70
2022-08-21T09:43:44.790Z,9.00
2022-08-21T09:46:34.520Z,9.10
2022-08-21T09:49:06.931Z,8.70
2022-08-21T09:51:56.363Z,10.30
2022-08-21T09:54:38.328Z,7.50
2022-08-21T09:57:32.116Z,8.00
2022-08-21T10:00:26.352Z,6.60
2022-08-21T10:03:08.324Z,8.50
2022-08-21T10:05:42.743Z,7.50
2022-08-21T10:08:22.012Z,8.30
2022-08-21T10:10:59.398Z,73.00
2022-08-21T10:14:06.761Z,19.20
2022-08-21T10:17:09.042Z,7.50
2022-08-21T10:20:10.833Z,7.90
2022-08-21T10:23:32.019Z,7.20
2022-08-21T10:26:40.285Z,7.20
2022-08-21T10:29:31.658Z,8.10
2022-08-21T10:45:16.520Z,6.30
2022-08-21T10:47:58.037Z,8.10
2022-08-21T10:50:49.777Z,9.20
2022-08-21T10:54:01.088Z,7.90
2022-08-21T10:56:34.787Z,14.30
2022-08-21T10:59:46.974Z,7.10
2022-08-21T11:03:11.327Z,8.20
2022-08-21T11:06:28.669Z,7.80
2022-08-21T11:09:20.873Z,6.70
2022-08-21T11:12:29.542Z,7.40
2022-08-21T11:16:00.895Z,7.60
2022-08-21T11:18:52.765Z,8.10
2022-08-21T11:21:41.702Z,7.60
2022-08-21T11:24:40.749Z,8.50
2022-08-21T11:27:30.141Z,8.40
2022-08-21T11:30:24.246Z,7.40
2022-08-21T11:33:25.252Z,8.70
2022-08-21T11:36:07.996Z,8.70
2022-08-21T11:38:57.841Z,8.30
2022-08-21T11:41:47.669Z,9.10
2022-08-21T11:45:21.388Z,7.90
2022-08-21T11:49:09.584Z,7.80
2022-08-21T11:52:44.895Z,9.30
2022-08-21T11:56:13.897Z,8.80
2022-08-21T11:59:10.645Z,27.20
2022-08-21T12:01:53.866Z,12.60
2022-08-21T12:04:44.063Z,8.80
2022-08-21T12:07:41.339Z,7.70
2022-08-21T12:10:44.379Z,10.00
2022-08-21T12:16:50.921Z,8.20
2022-08-21T12:19:43.043Z,10.80
2022-08-21T12:22:57.325Z,7.30
2022-08-21T12:25:47.855Z,7.50
2022-08-21T12:28:47.464Z,9.00
2022-08-21T12:31:31.867Z,8.20
2022-08-21T12:34:06.978Z,8.10
2022-08-21T12:37:00.462Z,6.40
2022-08-21T12:39:39.886Z,8.10
2022-08-21T12:42:26.057Z,7.30
2022-08-21T12:45:13.941Z,7.20
2022-08-21T12:48:03.569Z,7.80
2022-08-21T12:50:51.603Z,6.70
2022-08-21T12:53:34.851Z,6.60
2022-08-21T12:56:14.904Z,6.60
2022-08-21T12:58:55.115Z,7.30
2022-08-21T13:01:57.468Z,7.10
2022-08-21T13:04:44.473Z,9.20
2022-08-21T13:07:39.709Z,7.30
2022-08-21T13:10:32.857Z,7.20
2022-08-21T13:13:25.518Z,8.10
2022-08-21T13:16:07.268Z,7.20
2022-08-21T13:18:55.459Z,6.10
2022-08-21T13:21:35.958Z,5.70
2022-08-21T13:24:41.731Z,6.30
2022-08-21T13:33:07.684Z,6.80
2022-08-21T13:36:23.905Z,28.90
2022-08-21T13:43:33.041Z,6.20
2022-08-21T13:46:19.420Z,5.90
2022-08-21T13:49:14.948Z,5.80
2022-08-21T13:52:11.352Z,5.60
2022-08-21T13:55:00.865Z,5.40
2022-08-21T13:57:36.845Z,6.60
2022-08-21T14:00:31.546Z,5.40
2022-08-21T14:03:11.448Z,6.30
2022-08-21T14:05:47.773Z,5.80
2022-08-21T14:08:40.383Z,5.40
2022-08-21T14:11:36.296Z,14.00
2022-08-21T14:14:34.248Z,6.50
2022-08-21T14:17:39.919Z,6.40
2022-08-21T14:20:34.826Z,5.70
2022-08-21T14:23:27.673Z,6.00
2022-08-21T14:26:04.574Z,4.80
2022-08-21T14:28:41.468Z,6.60
2022-08-21T14:31:23.354Z,5.00
2022-08-21T14:33:56.634Z,5.60
2022-08-21T14:36:29.114Z,5.50
2022-08-21T14:38:58.561Z,5.10
2022-08-21T14:41:31.711Z,5.70
2022-08-21T14:44:09.647Z,6.60
2022-08-21T14:46:45.855Z,7.90
2022-08-21T14:49:28.952Z,6.30
2022-08-21T14:51:59.349Z,5.40
2022-08-21T14:54:32.447Z,5.50
2022-08-21T14:57:13.429Z,5.90
2022-08-21T14:59:42.641Z,7.50
2022-08-21T15:02:12.826Z,5.50
2022-08-21T15:04:43.698Z,5.50
2022-08-21T15:07:16.028Z,6.50
2022-08-21T15:09:45.317Z,5.00
2022-08-21T15:12:17.866Z,7.00
2022-08-21T15:14:47.514Z,5.30
2022-08-21T15:17:19.642Z,6.10
2022-08-21T15:19:49.126Z,6.20
2022-08-21T15:22:27.540Z,5.60
2022-08-21T15:25:10.977Z,7.10
2022-08-21T15:27:43.138Z,6.30
2022-08-21T15:30:13.260Z,5.70
2022-08-21T15:32:43.233Z,7.40
2022-08-21T15:35:21.179Z,8.80
2022-08-21T15:37:52.985Z,6.70
2022-08-21T15:40:24.192Z,7.00
2022-08-21T15:43:01.216Z,7.30
2022-08-21T15:45:31.865Z,6.10
2022-08-21T15:48:03.170Z,8.10
2022-08-21T15:53:02.717Z,9.50
2022-08-21T15:55:45.739Z,6.70
2022-08-21T15:58:24.816Z,5.90
2022-08-21T16:00:54.599Z,7.60
2022-08-21T16:03:24.920Z,6.80
2022-08-21T16:05:56.849Z,7.10
2022-08-21T16:08:26.284Z,8.00
2022-08-21T16:11:04.337Z,7.70
2022-08-21T16:13:46.035Z,9.40
2022-08-21T16:16:25.261Z,9.00
2022-08-21T16:19:00.943Z,9.50
2022-08-21T16:21:44.644Z,9.10
2022-08-21T16:24:24.751Z,10.50
2022-08-21T16:27:08.107Z,10.70
2022-08-21T16:29:39.593Z,9.10
2022-08-21T16:32:30.593Z,8.90
2022-08-21T16:35:53.110Z,9.30
2022-08-21T16:39:01.116Z,9.50
2022-08-21T16:42:11.824Z,8.50
2022-08-21T16:45:33.386Z,6.90
2022-08-21T16:48:18.428Z,12.20
2022-08-21T16:50:54.882Z,7.20
2022-08-21T16:53:31.494Z,9.30
2022-08-21T16:56:33.784Z,5.90
2022-08-21T16:59:44.633Z,5.90
2022-08-21T17:03:11.315Z,4.00
2022-08-21T17:06:05.373Z,6.80
2022-08-21T17:08:54.593Z,4.50
2022-08-21T17:11:50.728Z,5.00
2022-08-21T17:14:30.961Z,6.10
2022-08-21T17:17:14.447Z,4.90
2022-08-21T17:19:59.736Z,3.30
2022-08-21T17:22:34.434Z,5.10
2022-08-21T17:25:14.268Z,4.70
2022-08-21T17:28:20.317Z,5.40
2022-08-21T17:31:10.368Z,16.70
2022-08-21T17:33:56.499Z,5.00
2022-08-21T17:36:40.665Z,6.40
2022-08-21T17:39:22.102Z,5.80
2022-08-21T17:42:10.646Z,6.60
2022-08-21T17:44:46.401Z,7.10
2022-08-21T17:47:38.809Z,8.00
2022-08-21T17:50:22.450Z,5.40
2022-08-21T17:52:53.841Z,8.70
2022-08-21T17:55:25.117Z,7.40
2022-08-21T17:57:59.168Z,4.20
2022-08-21T18:00:39.511Z,6.40
2022-08-21T18:03:22.860Z,5.50
2022-08-21T18:05:54.616Z,4.10
2022-08-21T18:08:24.813Z,5.80
2022-08-21T18:11:04.342Z,5.20
2022-08-21T18:13:43.103Z,29.80
2022-08-21T18:16:19.732Z,6.30
2022-08-21T18:19:01.816Z,6.00
2022-08-21T18:22:04.286Z,7.20
2022-08-21T18:24:37.299Z,4.60
2022-08-21T18:27:19.082Z,6.10
2022-08-21T18:29:59.326Z,14.60
2022-08-21T18:32:42.391Z,8.30
2022-08-21T18:35:17.825Z,8.40
2022-08-21T18:37:50.493Z,11.60
2022-08-21T18:40:25.197Z,4.90
2022-08-21T18:42:57.673Z,5.70
2022-08-21T18:45:38.550Z,7.00
2022-08-21T18:48:16.841Z,5.60
2022-08-21T18:50:52.487Z,7.00
2022-08-21T18:53:36.340Z,6.70
2022-08-21T18:56:42.423Z,6.90
2022-08-21T18:59:21.582Z,6.10
2022-08-21T19:02:02.230Z,6.60
2022-08-21T19:04:43.610Z,4.00
2022-08-21T19:07:15.090Z,5.20
2022-08-21T19:12:44.032Z,7.20
2022-08-21T19:15:19.167Z,9.50
2022-08-21T19:17:56.831Z,6.20
2022-08-21T19:20:38.066Z,5.10
2022-08-21T19:23:11.699Z,5.90
2022-08-21T19:25:51.846Z,6.00
2022-08-21T19:28:49.264Z,6.50
2022-08-21T19:31:27.453Z,4.50
2022-08-21T19:34:08.743Z,8.30
2022-08-21T19:36:42.357Z,4.30
2022-08-21T19:39:16.126Z,5.90
2022-08-21T19:41:51.741Z,8.20
2022-08-21T19:44:31.886Z,5.60
2022-08-21T19:47:05.543Z,6.40
2022-08-21T19:49:38.710Z,6.40
2022-08-21T19:52:19.775Z,5.70
2022-08-21T19:54:57.708Z,6.40
2022-08-21T19:57:32.071Z,6.40
2022-08-21T20:00:07.127Z,7.80
2022-08-21T20:02:40.974Z,9.80
2022-08-21T20:05:20.382Z,9.20
2022-08-21T20:07:52.154Z,14.90
2022-08-21T20:10:23.274Z,7.20
2022-08-21T20:12:55.066Z,6.80
2022-08-21T20:15:25.139Z,6.40
2022-08-21T20:17:54.750Z,6.80
2022-08-21T20:20:24.027Z,5.60
2022-08-21T20:22:56.546Z,9.30
2022-08-21T20:25:29.177Z,6.30
2022-08-21T20:27:58.691Z,8.60
2022-08-21T20:30:29.035Z,5.40
2022-08-21T20:32:59.224Z,5.70
2022-08-21T20:35:32.017Z,5.30
2022-08-21T20:38:06.078Z,8.00
2022-08-21T20:40:37.691Z,5.70
2022-08-21T20:43:08.592Z,13.30
2022-08-21T20:45:51.935Z,9.40
2022-08-21T20:48:32.399Z,5.20
2022-08-21T20:51:44.988Z,5.90
2022-08-21T20:55:08.872Z,8.50
2022-08-21T20:58:03.142Z,7.20
2022-08-21T21:00:41.900Z,6.40
2022-08-21T21:03:21.275Z,7.50
2022-08-21T21:06:33.751Z,9.40
2022-08-21T21:09:24.325Z,5.40
2022-08-21T21:11:59.146Z,5.70
2022-08-21T21:14:48.374Z,6.50
2022-08-21T21:18:14.163Z,7.90
2022-08-21T21:20:57.457Z,6.40
2022-08-21T21:24:07.441Z,6.40
2022-08-21T21:27:18.457Z,5.80
2022-08-21T21:29:57.153Z,6.60
2022-08-21T21:32:34.404Z,6.30
2022-08-21T21:35:32.550Z,4.00
2022-08-21T21:38:51.627Z,6.20
2022-08-21T21:41:37.805Z,6.90
2022-08-21T21:44:56.390Z,5.70
2022-08-21T21:47:52.331Z,7.00
2022-08-21T21:50:46.404Z,14.30
2022-08-21T21:54:04.712Z,5.90
2022-08-21T21:57:11.444Z,5.60
2022-08-21T22:00:12.182Z,6.00
2022-08-21T22:03:22.611Z,4.70
2022-08-21T22:06:08.536Z,7.60
2022-08-21T22:09:02.598Z,5.40
2022-08-21T22:11:58.723Z,5.20
2022-08-21T22:14:46.680Z,7.60
2022-08-21T22:17:41.084Z,5.90
2022-08-21T22:20:35.818Z,5.60
2022-08-21T22:23:16.021Z,6.40
2022-08-21T22:25:58.554Z,5.10
2022-08-21T22:28:40.458Z,5.70
2022-08-21T22:31:29.698Z,6.00
2022-08-21T22:34:18.450Z,7.60
2022-08-21T22:37:15.685Z,4.60
2022-08-21T22:40:02.221Z,8.10
2022-08-21T22:43:04.054Z,6.40
2022-08-21T22:46:13.478Z,5.20
2022-08-21T22:49:04.846Z,10.00
2022-08-21T22:51:49.902Z,6.00
2022-08-21T22:54:35.977Z,6.50
2022-08-21T22:57:35.124Z,5.70
2022-08-21T23:00:17.522Z,5.70
2022-08-21T23:05:40.161Z,6.80
2022-08-21T23:08:40.540Z,5.00
2022-08-21T23:11:44.403Z,3.80
2022-08-21T23:14:20.184Z,6.00
2022-08-21T23:17:07.793Z,5.80
2022-08-21T23:20:13.250Z,3.70
2022-08-21T23:22:54.811Z,4.90
2022-08-21T23:28:58.622Z,7.00
2022-08-21T23:31:58.569Z,5.10
2022-08-21T23:35:02.179Z,6.00
2022-08-21T23:38:17.951Z,4.60
2022-08-21T23:40:58.706Z,9.30
2022-08-21T23:44:12.927Z,5.60
2022-08-21T23:47:29.627Z,4.90
2022-08-21T23:50:32.743Z,5.50
2022-08-21T23:53:23.914Z,3.90
2022-08-21T23:56:51.436Z,4.30
2022-08-21T23:59:54.028Z,5.60
